Time;durP1;ratioP1;P1;durP2;ratioP2;P2;SDS_P1;SDS_P2;PMS_P1;PMS_P2;Temp;Humidity;BMP_temperature;BMP_pressure;BME280_temperature;BME280_humidity;BME280_pressure;Samples;Min_cycle;Max_cycle;Signal;HPM_P1;HPM_P2
2022/04/11 00:00:18;;;;;;;20.10;12.07;;;4.60;99.90;;;;;;5022092;28;20850;-59
2022/04/11 00:03:07;;;;;;;20.93;10.40;;;4.60;99.90;;;;;;5024867;28;20588;-59
2022/04/11 00:05:57;;;;;;;19.77;9.83;;;4.50;99.90;;;;;;5032935;28;20220;-59
2022/04/11 00:08:45;;;;;;;18.17;10.23;;;4.50;99.90;;;;;;5022676;28;20231;-58
2022/04/11 00:11:34;;;;;;;18.50;9.90;;;4.40;99.90;;;;;;5016197;28;20235;-60
2022/04/11 00:14:47;;;;;;;15.37;9.03;;;4.50;99.90;;;;;;5033393;28;20225;-59
2022/04/11 00:17:36;;;;;;;19.77;9.70;;;4.50;99.90;;;;;;5029960;28;20816;-59
2022/04/11 00:20:25;;;;;;;15.50;9.03;;;4.60;99.90;;;;;;5036016;28;20221;-59
2022/04/11 00:23:15;;;;;;;15.67;8.73;;;4.70;99.90;;;;;;5032614;28;20761;-58
2022/04/11 00:26:04;;;;;;;16.07;8.87;;;4.70;99.90;;;;;;5036044;28;20231;-57
2022/04/11 00:28:57;;;;;;;16.60;8.60;;;4.80;99.90;;;;;;5037065;28;20325;-58
2022/04/11 00:31:46;;;;;;;16.93;7.73;;;4.80;99.90;;;;;;5031716;28;20238;-59
2022/04/11 00:34:35;;;;;;;14.17;8.90;;;4.80;99.90;;;;;;5052262;28;20304;-59
2022/04/11 00:37:23;;;;;;;15.37;8.63;;;4.80;99.90;;;;;;5041484;28;20227;-59
2022/04/11 00:40:13;;;;;;;16.63;9.20;;;4.80;99.90;;;;;;5033983;28;20240;-58
2022/04/11 00:43:02;;;;;;;16.63;9.03;;;4.70;99.90;;;;;;5050761;28;20723;-58
2022/04/11 00:45:51;;;;;;;16.13;9.00;;;4.70;99.90;;;;;;5050194;28;20249;-59
2022/04/11 00:48:40;;;;;;;17.23;9.43;;;4.70;99.90;;;;;;5048256;28;20886;-59
2022/04/11 00:51:29;;;;;;;23.50;9.97;;;4.60;99.90;;;;;;5040637;28;20607;-59
2022/04/11 00:54:18;;;;;;;19.23;9.77;;;4.50;99.90;;;;;;5051599;28;20227;-60
2022/04/11 00:57:15;;;;;;;15.70;9.87;;;4.60;99.90;;;;;;5051223;28;20695;-58
2022/04/11 01:00:06;;;;;;;20.57;10.27;;;4.50;99.90;;;;;;5054548;28;20223;-59
2022/04/11 01:02:55;;;;;;;20.80;10.33;;;4.40;99.90;;;;;;5054490;28;20888;-58
2022/04/11 01:05:44;;;;;;;19.03;10.57;;;4.40;99.90;;;;;;5038770;28;20746;-59
2022/04/11 01:08:32;;;;;;;19.37;11.13;;;4.40;99.90;;;;;;5040473;28;20326;-58
2022/04/11 01:11:21;;;;;;;16.90;10.17;;;4.50;99.90;;;;;;5049847;28;20227;-60
2022/04/11 01:14:11;;;;;;;15.77;10.03;;;4.40;99.90;;;;;;5045524;28;20228;-58
2022/04/11 01:17:00;;;;;;;21.40;10.47;;;4.30;99.90;;;;;;5048855;28;20229;-59
2022/04/11 01:19:49;;;;;;;22.83;10.63;;;4.50;99.90;;;;;;5042943;28;20227;-58
2022/04/11 01:22:39;;;;;;;19.87;10.60;;;4.40;99.90;;;;;;5038754;28;20226;-59
2022/04/11 01:25:28;;;;;;;19.17;10.70;;;4.20;99.90;;;;;;5062269;28;20226;-60
2022/04/11 01:28:17;;;;;;;19.33;10.67;;;4.30;99.90;;;;;;5054002;28;20395;-60
2022/04/11 01:31:06;;;;;;;19.10;10.97;;;4.40;99.90;;;;;;5036696;28;20234;-58
2022/04/11 01:33:55;;;;;;;16.93;10.47;;;4.30;99.90;;;;;;5041629;28;20902;-61
2022/04/11 01:36:44;;;;;;;18.90;10.93;;;4.40;99.90;;;;;;5039269;28;20221;-58
2022/04/11 01:39:37;;;;;;;17.97;10.53;;;4.30;99.90;;;;;;5040058;28;20236;-59
2022/04/11 01:42:26;;;;;;;16.83;10.07;;;4.30;99.90;;;;;;5041103;28;20216;-58
2022/04/11 01:45:16;;;;;;;20.97;11.10;;;4.20;99.90;;;;;;5039084;28;20794;-58
2022/04/11 01:48:06;;;;;;;19.63;10.97;;;4.30;99.90;;;;;;5049087;28;20269;-58
2022/04/11 01:50:58;;;;;;;17.70;10.93;;;4.20;99.90;;;;;;5056590;28;20228;-59
2022/04/11 01:53:47;;;;;;;17.47;10.73;;;4.30;99.90;;;;;;5042537;28;20268;-59
2022/04/11 01:56:38;;;;;;;21.23;10.50;;;4.30;99.90;;;;;;5033158;28;20224;-59
2022/04/11 01:59:27;;;;;;;20.83;10.00;;;4.30;99.90;;;;;;5060577;28;20219;-58
2022/04/11 02:02:16;;;;;;;19.93;11.67;;;4.20;99.90;;;;;;5037879;28;20215;-59
2022/04/11 02:05:05;;;;;;;20.60;11.30;;;4.10;99.90;;;;;;5059306;28;20885;-58
2022/04/11 02:07:55;;;;;;;27.73;11.47;;;4.10;99.90;;;;;;5037503;28;20673;-57
2022/04/11 02:10:47;;;;;;;22.00;11.37;;;4.10;99.90;;;;;;5035553;28;20641;-58
2022/04/11 02:13:37;;;;;;;22.17;11.13;;;4.00;99.90;;;;;;5033831;28;20227;-59
2022/04/11 02:16:26;;;;;;;23.77;12.07;;;4.10;99.90;;;;;;5054040;28;20411;-58
2022/04/11 02:19:15;;;;;;;23.40;12.70;;;4.00;99.90;;;;;;5042093;28;20236;-59
2022/04/11 02:22:03;;;;;;;20.97;11.33;;;4.00;99.90;;;;;;5048182;28;20238;-59
2022/04/11 02:24:52;;;;;;;21.10;11.60;;;4.00;99.90;;;;;;5036181;28;20227;-59
2022/04/11 02:27:41;;;;;;;21.60;12.90;;;4.00;99.90;;;;;;5041581;28;20235;-58
2022/04/11 02:30:31;;;;;;;23.37;12.60;;;3.90;99.90;;;;;;5038211;28;20214;-59
2022/04/11 02:33:20;;;;;;;22.00;13.10;;;4.00;99.90;;;;;;5057409;28;20823;-59
2022/04/11 02:36:09;;;;;;;19.90;12.63;;;4.10;99.90;;;;;;5042230;28;20905;-58
2022/04/11 02:38:58;;;;;;;22.23;12.53;;;4.00;99.90;;;;;;5037598;28;20773;-58
2022/04/11 02:41:47;;;;;;;21.20;13.20;;;3.90;99.90;;;;;;5064869;28;20221;-58
2022/04/11 02:44:36;;;;;;;20.80;12.17;;;4.00;99.90;;;;;;5043354;28;20234;-59
2022/04/11 02:47:27;;;;;;;20.97;13.00;;;3.90;99.90;;;;;;5035728;28;20212;-59
2022/04/11 02:50:17;;;;;;;25.20;12.77;;;4.00;99.90;;;;;;5063785;28;20546;-57
2022/04/11 02:53:20;;;;;;;24.10;12.90;;;3.90;99.90;;;;;;5042837;28;20685;-58
2022/04/11 02:56:09;;;;;;;23.30;12.60;;;3.90;99.90;;;;;;5061389;28;20234;-57
2022/04/11 02:58:58;;;;;;;21.23;12.53;;;3.80;99.90;;;;;;5059220;28;20254;-57
2022/04/11 03:01:49;;;;;;;23.63;13.23;;;3.70;99.90;;;;;;5050792;28;20331;-58
2022/04/11 03:04:39;;;;;;;24.57;14.13;;;3.90;99.90;;;;;;5038698;28;20223;-58
2022/04/11 03:07:39;;;;;;;21.90;13.00;;;3.90;99.90;;;;;;5061978;28;20269;-59
2022/04/11 03:10:27;;;;;;;23.00;13.20;;;3.90;99.90;;;;;;5036851;28;20227;-60
2022/04/11 03:13:22;;;;;;;21.57;12.50;;;4.00;99.90;;;;;;5058655;28;20237;-59
2022/04/11 03:16:10;;;;;;;23.27;12.87;;;3.80;99.90;;;;;;5041350;28;20215;-59
2022/04/11 03:19:01;;;;;;;24.87;12.77;;;3.80;99.90;;;;;;5033176;28;20291;-59
2022/04/11 03:21:52;;;;;;;23.13;13.87;;;3.60;99.90;;;;;;5034673;28;20242;-59
2022/04/11 03:24:40;;;;;;;23.80;13.90;;;3.50;99.90;;;;;;5048578;28;20307;-59
2022/04/11 03:27:32;;;;;;;22.17;13.77;;;3.50;99.90;;;;;;5042427;28;20793;-59
2022/04/11 03:30:22;;;;;;;24.97;14.37;;;3.50;99.90;;;;;;5040887;28;20706;-59
2022/04/11 03:33:12;;;;;;;20.13;13.03;;;3.50;99.90;;;;;;5042544;28;21266;-59
2022/04/11 03:36:05;;;;;;;27.07;14.50;;;3.40;99.90;;;;;;5037227;28;20638;-58
2022/04/11 03:38:55;;;;;;;31.37;18.27;;;3.20;99.90;;;;;;5035476;28;20262;-59
2022/04/11 03:41:47;;;;;;;23.23;13.87;;;3.30;99.90;;;;;;5036319;28;20220;-59
2022/04/11 03:44:47;;;;;;;27.70;15.37;;;3.30;99.90;;;;;;5059854;28;20218;-59
2022/04/11 03:47:39;;;;;;;22.40;13.57;;;3.40;99.90;;;;;;5039015;28;20865;-59
2022/04/11 03:50:30;;;;;;;28.17;14.37;;;3.40;99.90;;;;;;5045532;28;20885;-59
2022/04/11 03:53:22;;;;;;;25.13;14.87;;;3.40;99.90;;;;;;5046484;28;20235;-59
2022/04/11 03:56:18;;;;;;;24.93;14.60;;;3.40;99.90;;;;;;5034965;28;20706;-59
2022/04/11 03:59:07;;;;;;;23.43;13.90;;;3.40;99.90;;;;;;5037964;28;20703;-59
2022/04/11 04:01:56;;;;;;;25.53;14.67;;;3.40;99.90;;;;;;5032342;28;20228;-59
2022/04/11 04:04:45;;;;;;;25.13;14.53;;;3.30;99.90;;;;;;5037762;28;20248;-59
2022/04/11 04:07:35;;;;;;;24.40;13.80;;;3.30;99.90;;;;;;5068618;28;20226;-59
2022/04/11 04:10:26;;;;;;;24.60;13.97;;;3.40;99.90;;;;;;5035621;28;20225;-60
2022/04/11 04:13:21;;;;;;;22.53;13.37;;;3.50;99.90;;;;;;5039216;28;20711;-59
2022/04/11 04:16:10;;;;;;;25.10;15.03;;;3.40;99.90;;;;;;5039489;28;20355;-59
2022/04/11 04:19:02;;;;;;;24.60;14.60;;;3.40;99.90;;;;;;5043078;28;20230;-59
2022/04/11 04:21:51;;;;;;;27.80;14.37;;;3.40;99.90;;;;;;5049639;28;20231;-59
2022/04/11 04:24:40;;;;;;;23.10;13.37;;;3.40;99.90;;;;;;5033574;28;20231;-59
2022/04/11 04:27:34;;;;;;;24.60;14.27;;;3.30;99.90;;;;;;5037922;28;20357;-59
2022/04/11 04:30:25;;;;;;;25.20;14.60;;;3.40;99.90;;;;;;5065270;28;20242;-59
2022/04/11 04:33:14;;;;;;;26.73;14.43;;;3.40;99.90;;;;;;5037647;28;20227;-58
2022/04/11 04:36:06;;;;;;;26.77;15.10;;;3.40;99.90;;;;;;5042203;28;20313;-58
2022/04/11 04:38:54;;;;;;;23.20;13.77;;;3.50;99.90;;;;;;5037879;28;20224;-58
2022/04/11 04:41:44;;;;;;;26.07;14.43;;;3.40;99.90;;;;;;5038795;28;21060;-58
2022/04/11 04:44:40;;;;;;;24.63;14.53;;;3.50;99.90;;;;;;5042115;28;20354;-58
2022/04/11 04:47:35;;;;;;;25.53;14.10;;;3.60;99.90;;;;;;5037538;28;20227;-58
2022/04/11 04:50:24;;;;;;;27.10;14.13;;;3.70;99.90;;;;;;5064039;28;20219;-57
2022/04/11 04:53:13;;;;;;;24.13;13.40;;;3.80;99.90;;;;;;5032949;28;20223;-58
2022/04/11 04:56:01;;;;;;;21.47;13.13;;;3.90;99.90;;;;;;5036956;28;20264;-59
2022/04/11 04:58:53;;;;;;;24.00;14.00;;;3.90;99.90;;;;;;5041312;28;20705;-59
2022/04/11 05:01:42;;;;;;;21.60;13.33;;;4.00;99.90;;;;;;5038480;28;20220;-63
2022/04/11 05:04:40;;;;;;;25.27;14.50;;;4.00;99.90;;;;;;5032373;28;20238;-59
2022/04/11 05:07:29;;;;;;;24.97;13.97;;;4.00;99.90;;;;;;5062017;28;20381;-56
2022/04/11 05:10:17;;;;;;;22.80;13.77;;;4.00;99.90;;;;;;5056484;28;20666;-59
2022/04/11 05:13:09;;;;;;;22.90;13.40;;;4.00;99.90;;;;;;5032242;28;20226;-59
2022/04/11 05:15:59;;;;;;;22.47;13.20;;;4.00;99.90;;;;;;5050884;28;20590;-58
2022/04/11 05:18:50;;;;;;;25.63;13.03;;;4.10;99.90;;;;;;5034937;28;20227;-57
2022/04/11 05:21:40;;;;;;;22.13;13.40;;;4.30;99.90;;;;;;5033401;28;20304;-60
2022/04/11 05:24:29;;;;;;;24.10;13.10;;;4.30;99.90;;;;;;5042011;28;20217;-59
2022/04/11 05:27:19;;;;;;;25.23;14.00;;;4.40;99.90;;;;;;5044467;28;20697;-60
2022/04/11 05:30:09;;;;;;;23.70;13.13;;;4.40;99.90;;;;;;5038965;28;20701;-59
2022/04/11 05:32:58;;;;;;;24.47;13.93;;;4.50;99.90;;;;;;5035672;28;20228;-59
2022/04/11 05:35:48;;;;;;;21.90;13.00;;;4.60;99.90;;;;;;5044822;28;20239;-58
2022/04/11 05:38:38;;;;;;;20.97;12.93;;;4.70;99.90;;;;;;5055183;28;20640;-58
2022/04/11 05:41:27;;;;;;;19.33;12.37;;;5.00;99.90;;;;;;5062804;28;20670;-59
2022/04/11 05:44:17;;;;;;;17.37;12.10;;;5.10;99.90;;;;;;5044560;28;20415;-60
2022/04/11 05:47:07;;;;;;;21.13;12.50;;;5.20;99.90;;;;;;5055948;28;20224;-59
2022/04/11 05:50:08;;;;;;;24.17;12.70;;;5.30;99.90;;;;;;5063431;28;20224;-59
2022/04/11 05:52:57;;;;;;;22.73;12.30;;;5.40;99.90;;;;;;5045070;28;20315;-58
2022/04/11 05:55:47;;;;;;;23.70;13.13;;;5.50;99.90;;;;;;5038148;28;20221;-59
2022/04/11 05:58:36;;;;;;;23.63;13.67;;;5.30;99.90;;;;;;5045360;28;20830;-59
2022/04/11 06:01:26;;;;;;;25.00;14.50;;;5.20;99.90;;;;;;5057501;28;20706;-59
2022/04/11 06:04:14;;;;;;;24.30;15.87;;;5.20;99.90;;;;;;5052758;28;20220;-59
2022/04/11 06:07:04;;;;;;;28.47;17.07;;;5.20;99.90;;;;;;5066966;28;20228;-59
2022/04/11 06:09:55;;;;;;;27.33;16.80;;;5.20;99.90;;;;;;5039673;28;20716;-58
2022/04/11 06:12:50;;;;;;;25.00;15.77;;;5.20;99.90;;;;;;5045058;28;20227;-59
2022/04/11 06:15:39;;;;;;;25.07;15.43;;;5.40;99.90;;;;;;5041035;28;20641;-61
2022/04/11 06:18:28;;;;;;;28.80;16.53;;;5.70;99.90;;;;;;5036407;28;20601;-61
2022/04/11 06:21:17;;;;;;;27.20;17.03;;;5.90;99.90;;;;;;5035706;28;20225;-60
2022/04/11 06:24:06;;;;;;;27.10;17.30;;;6.30;99.90;;;;;;5055942;28;20231;-60
2022/04/11 06:26:56;;;;;;;24.90;15.13;;;6.40;99.90;;;;;;5036754;28;20216;-61
2022/04/11 06:29:47;;;;;;;23.13;14.23;;;6.50;99.90;;;;;;5060236;28;20319;-59
2022/04/11 06:32:35;;;;;;;22.10;15.27;;;6.50;99.90;;;;;;5061901;28;20208;-59
2022/04/11 06:35:24;;;;;;;24.10;16.90;;;6.40;99.90;;;;;;5062172;28;20225;-60
2022/04/11 06:38:14;;;;;;;23.57;16.37;;;6.30;99.90;;;;;;5041579;28;20220;-59
2022/04/11 06:41:07;;;;;;;27.77;17.03;;;6.10;99.90;;;;;;5039739;28;20224;-59
2022/04/11 06:43:56;;;;;;;26.23;18.17;;;6.10;99.90;;;;;;5051100;28;20269;-58
2022/04/11 06:46:55;;;;;;;28.10;18.77;;;6.20;99.90;;;;;;5043301;28;20231;-63
2022/04/11 06:49:46;;;;;;;30.03;20.77;;;6.40;99.90;;;;;;5044350;28;20225;-66
2022/04/11 06:52:35;;;;;;;29.07;19.17;;;6.30;99.90;;;;;;5049953;28;20224;-62
2022/04/11 06:55:24;;;;;;;30.17;19.80;;;6.30;99.90;;;;;;5051438;28;20228;-62
2022/04/11 06:58:12;;;;;;;25.43;19.20;;;6.20;99.90;;;;;;5054418;28;20220;-60
2022/04/11 07:01:01;;;;;;;28.33;17.93;;;6.10;99.90;;;;;;5043735;28;20286;-61
2022/04/11 07:03:53;;;;;;;26.37;18.40;;;6.00;99.90;;;;;;5037718;28;20548;-60
2022/04/11 07:06:41;;;;;;;31.83;19.73;;;6.20;99.90;;;;;;5033085;28;20228;-58
2022/04/11 07:09:31;;;;;;;30.90;19.30;;;6.10;99.90;;;;;;5039723;28;20243;-59
2022/04/11 07:12:19;;;;;;;33.87;19.03;;;6.10;99.90;;;;;;5053841;28;20607;-62
2022/04/11 07:15:09;;;;;;;26.67;17.63;;;6.40;99.90;;;;;;5047004;28;20264;-60
2022/04/11 07:17:58;;;;;;;25.70;15.93;;;6.70;99.90;;;;;;5052163;28;20228;-61
2022/04/11 07:20:51;;;;;;;23.80;16.30;;;6.80;99.90;;;;;;5041084;28;20257;-61
2022/04/11 07:23:43;;;;;;;25.60;15.40;;;6.70;99.90;;;;;;5044057;28;20220;-61
2022/04/11 07:26:33;;;;;;;27.93;16.50;;;6.60;99.90;;;;;;5027586;28;20394;-61
2022/04/11 07:29:22;;;;;;;22.43;15.07;;;6.50;99.90;;;;;;5029815;28;20797;-59
2022/04/11 07:32:11;;;;;;;26.37;15.37;;;7.00;99.90;;;;;;5033291;28;20327;-61
2022/04/11 07:35:00;;;;;;;20.03;14.33;;;7.50;99.90;;;;;;5041256;28;20248;-60
2022/04/11 07:37:50;;;;;;;21.87;15.03;;;7.80;99.90;;;;;;5046233;28;20218;-59
2022/04/11 07:40:39;;;;;;;26.00;14.47;;;8.00;99.90;;;;;;5041328;28;20742;-61
2022/04/11 07:43:27;;;;;;;24.00;14.77;;;7.60;99.90;;;;;;5031166;28;20212;-61
2022/04/11 07:46:16;;;;;;;22.07;15.47;;;7.30;99.90;;;;;;5053712;28;20633;-60
2022/04/11 07:49:05;;;;;;;27.27;15.53;;;7.90;99.90;;;;;;5036703;28;20958;-60
2022/04/11 07:51:53;;;;;;;25.93;15.87;;;8.50;99.90;;;;;;5050064;28;20219;-60
2022/04/11 07:54:47;;;;;;;22.73;16.07;;;8.50;99.90;;;;;;5052166;28;20248;-60
2022/04/11 07:57:36;;;;;;;26.17;15.60;;;8.80;99.90;;;;;;5045605;28;20662;-60
2022/04/11 08:00:50;;;;;;;19.58;13.30;;;10.50;99.90;;;;;;5049590;28;20288;-60
2022/04/11 08:03:39;;;;;;;17.42;12.15;;;12.40;99.90;;;;;;5045327;28;20240;-59
2022/04/11 08:06:28;;;;;;;17.92;10.63;;;13.10;99.90;;;;;;5046959;28;20772;-61
2022/04/11 08:09:16;;;;;;;17.27;11.50;;;11.90;99.90;;;;;;5053814;28;20290;-61
2022/04/11 08:12:07;;;;;;;17.20;11.60;;;12.90;99.90;;;;;;5047541;28;20225;-60
2022/04/11 08:14:57;;;;;;;18.58;11.13;;;13.60;99.90;;;;;;5046377;28;20240;-59
2022/04/11 08:17:46;;;;;;;17.25;10.55;;;15.00;99.90;;;;;;5059918;28;20227;-60
2022/04/11 08:20:34;;;;;;;24.30;11.25;;;14.30;95.70;;;;;;5051796;28;20220;-61
2022/04/11 08:23:23;;;;;;;18.58;10.20;;;14.40;99.40;;;;;;5041309;28;20315;-61
2022/04/11 08:26:12;;;;;;;14.60;10.05;;;13.40;97.50;;;;;;5033820;28;20227;-62
2022/04/11 08:29:02;;;;;;;17.83;9.77;;;14.50;96.60;;;;;;5053402;28;20340;-61
2022/04/11 08:31:51;;;;;;;13.00;9.77;;;14.10;93.20;;;;;;5049820;28;20706;-61
2022/04/11 08:34:40;;;;;;;12.98;9.30;;;12.10;97.30;;;;;;5047956;28;20611;-61
2022/04/11 08:37:28;;;;;;;17.75;11.02;;;10.90;99.90;;;;;;5059790;28;20212;-62
2022/04/11 08:40:19;;;;;;;22.10;12.13;;;11.70;99.90;;;;;;5056281;28;20220;-60
2022/04/11 08:43:13;;;;;;;20.00;12.77;;;12.30;99.90;;;;;;5059533;28;20216;-59
2022/04/11 08:46:06;;;;;;;20.73;13.00;;;11.30;99.90;;;;;;5053011;28;20304;-62
2022/04/11 08:48:55;;;;;;;19.10;13.35;;;11.30;99.90;;;;;;5034893;28;20227;-63
2022/04/11 08:51:43;;;;;;;17.33;12.70;;;13.20;99.90;;;;;;5050782;28;20258;-62
2022/04/11 08:54:33;;;;;;;16.15;10.48;;;14.80;99.90;;;;;;5032587;28;20726;-61
2022/04/11 08:57:22;;;;;;;14.18;9.52;;;17.80;90.80;;;;;;5050562;28;20227;-62
2022/04/11 09:00:13;;;;;;;12.20;8.52;;;19.40;73.40;;;;;;5052152;28;20316;-60
2022/04/11 09:03:05;;;;;;;13.40;9.02;;;20.60;66.50;;;;;;5046586;28;20314;-59
2022/04/11 09:06:04;;;;;;;12.63;10.13;;;21.50;63.80;;;;;;5045997;28;20220;-56
2022/04/11 09:08:54;;;;;;;10.45;8.80;;;19.20;66.00;;;;;;5051310;28;20290;-55
2022/04/11 09:11:43;;;;;;;11.57;8.00;;;18.80;69.40;;;;;;5055723;28;20297;-60
2022/04/11 09:14:35;;;;;;;12.50;6.57;;;20.90;64.30;;;;;;5051145;28;20235;-62
2022/04/11 09:17:24;;;;;;;14.05;7.35;;;21.70;60.90;;;;;;5050287;28;20224;-58
2022/04/11 09:20:16;;;;;;;14.65;6.35;;;20.80;58.40;;;;;;5035494;28;20223;-60
2022/04/11 09:23:18;;;;;;;9.93;6.10;;;15.80;66.30;;;;;;5040511;28;20551;-59
2022/04/11 09:26:19;;;;;;;13.48;8.07;;;13.10;76.30;;;;;;5060824;28;20229;-58
2022/04/11 09:29:09;;;;;;;14.63;6.72;;;12.30;83.00;;;;;;5039340;28;20294;-59
2022/04/11 09:32:03;;;;;;;13.85;7.05;;;11.50;86.20;;;;;;5038294;28;20221;-59
2022/04/11 09:34:54;;;;;;;12.40;6.63;;;11.10;90.10;;;;;;5053237;28;20224;-59
2022/04/11 09:37:45;;;;;;;11.65;6.57;;;10.80;92.00;;;;;;5041564;28;20216;-59
2022/04/11 09:40:37;;;;;;;10.60;7.10;;;11.40;92.00;;;;;;5043553;28;20213;-60
2022/04/11 09:43:27;;;;;;;11.18;5.57;;;11.50;91.50;;;;;;5053811;28;20683;-60
2022/04/11 09:46:19;;;;;;;12.23;5.75;;;11.40;88.60;;;;;;5051732;28;20224;-66
2022/04/11 09:49:08;;;;;;;9.98;5.25;;;11.00;90.00;;;;;;5057622;28;20225;-59
2022/04/11 09:52:11;;;;;;;11.95;5.70;;;11.20;90.40;;;;;;5046462;28;20220;-59
2022/04/11 09:55:02;;;;;;;10.93;6.00;;;11.80;89.50;;;;;;5053097;28;20263;-60
2022/04/11 09:57:50;;;;;;;9.82;5.78;;;12.70;86.60;;;;;;5056732;28;20254;-59
2022/04/11 10:00:41;;;;;;;7.90;5.30;;;13.10;84.40;;;;;;5043741;28;20275;-60
2022/04/11 10:03:30;;;;;;;8.05;5.22;;;12.60;85.00;;;;;;5056338;28;20599;-59
2022/04/11 10:06:22;;;;;;;8.60;4.82;;;12.60;85.40;;;;;;5055604;28;20224;-59
2022/04/11 10:09:11;;;;;;;8.63;4.65;;;12.10;86.00;;;;;;5058446;28;20213;-59
2022/04/11 10:12:03;;;;;;;7.32;4.93;;;13.30;81.80;;;;;;5053904;28;20224;-59
2022/04/11 10:14:54;;;;;;;9.13;4.97;;;12.80;81.00;;;;;;5056792;28;20232;-59
2022/04/11 10:17:42;;;;;;;9.20;4.43;;;12.50;82.30;;;;;;5044553;28;20247;-59
2022/04/11 10:20:37;;;;;;;8.75;5.07;;;11.60;85.20;;;;;;5064825;28;20224;-60
2022/04/11 10:23:32;;;;;;;11.00;5.28;;;11.70;86.30;;;;;;5062217;28;20213;-60
2022/04/11 10:26:20;;;;;;;9.52;5.25;;;11.60;89.20;;;;;;5052370;28;20224;-59
2022/04/11 10:29:31;;;;;;;9.85;4.38;;;11.20;89.00;;;;;;5043799;28;20541;-58
2022/04/11 10:32:21;;;;;;;8.27;4.47;;;10.80;90.30;;;;;;5053863;28;20227;-57
2022/04/11 10:35:10;;;;;;;7.88;4.25;;;10.70;90.30;;;;;;5050896;28;20232;-57
2022/04/11 10:38:06;;;;;;;9.57;4.45;;;10.50;89.40;;;;;;5059753;28;20301;-58
2022/04/11 10:40:55;;;;;;;6.80;3.92;;;10.40;89.70;;;;;;5055293;28;20231;-58
2022/04/11 10:44:32;;;;;;;8.10;4.60;;;10.40;90.00;;;;;;5051374;28;20223;-59
2022/04/11 10:47:31;;;;;;;10.88;4.47;;;10.40;90.00;;;;;;5039206;28;22372;-60
2022/04/11 10:50:28;;;;;;;7.82;4.30;;;10.70;89.10;;;;;;5054669;28;20220;-60
2022/04/11 10:53:24;;;;;;;10.60;5.22;;;11.00;88.20;;;;;;5057550;28;20215;-61
2022/04/11 10:56:12;;;;;;;8.70;4.65;;;11.10;87.70;;;;;;5051232;28;20276;-60
2022/04/11 10:59:01;;;;;;;8.85;4.95;;;11.10;87.20;;;;;;5055460;28;20224;-60
2022/04/11 11:01:59;;;;;;;6.50;4.50;;;10.80;88.30;;;;;;5059991;28;20215;-59
2022/04/11 11:04:49;;;;;;;8.20;4.45;;;10.70;88.90;;;;;;5057448;28;20208;-61
2022/04/11 11:07:37;;;;;;;10.45;4.30;;;10.70;89.00;;;;;;5054108;28;20220;-60
2022/04/11 11:10:43;;;;;;;8.55;4.38;;;10.30;90.00;;;;;;5063019;28;20232;-59
2022/04/11 11:13:39;;;;;;;10.25;4.95;;;10.10;92.20;;;;;;5058041;28;20224;-60
2022/04/11 11:17:00;;;;;;;9.75;4.47;;;10.00;94.00;;;;;;5045755;28;20228;-60
2022/04/11 11:20:09;;;;;;;11.93;4.35;;;9.80;94.90;;;;;;5048883;28;20291;-59
2022/04/11 11:23:21;;;;;;;8.70;3.97;;;9.70;97.50;;;;;;5058553;28;20220;-59
2022/04/11 11:26:12;;;;;;;7.00;4.00;;;9.60;98.80;;;;;;5035127;28;20244;-60
2022/04/11 11:29:01;;;;;;;6.90;3.85;;;9.40;99.50;;;;;;5028972;28;21119;-58
2022/04/11 11:31:51;;;;;;;10.27;4.28;;;9.50;99.90;;;;;;5018712;28;20235;-59
2022/04/11 11:34:41;;;;;;;6.65;3.42;;;9.30;99.90;;;;;;5035709;28;20304;-60
2022/04/11 11:37:31;;;;;;;4.90;2.47;;;9.00;99.90;;;;;;5038035;28;20378;-60
2022/04/11 11:40:20;;;;;;;3.67;2.22;;;8.70;99.90;;;;;;5032368;28;20228;-59
2022/04/11 11:43:12;;;;;;;5.43;2.20;;;8.40;99.90;;;;;;5019687;28;20227;-58
2022/04/11 11:46:02;;;;;;;2.90;2.07;;;8.30;99.90;;;;;;5036616;28;20273;-58
2022/04/11 11:48:56;;;;;;;4.87;2.17;;;8.50;99.90;;;;;;5035309;28;20224;-57
2022/04/11 11:51:44;;;;;;;5.63;2.23;;;8.80;99.90;;;;;;5030643;28;20294;-59
2022/04/11 11:54:39;;;;;;;5.00;2.17;;;8.90;99.90;;;;;;5030783;28;20224;-60
2022/04/11 11:57:30;;;;;;;4.38;2.40;;;9.00;99.90;;;;;;5031564;28;20561;-58
2022/04/11 12:00:19;;;;;;;7.88;2.45;;;9.00;99.90;;;;;;5032156;28;21134;-62
2022/04/11 12:06:24;;;;;;;9.18;2.85;;;9.10;99.90;;;;;;5020919;28;20723;-60
2022/04/11 12:09:17;;;;;;;11.38;3.30;;;9.30;99.90;;;;;;5022361;28;20463;-59
2022/04/11 12:12:09;;;;;;;5.35;3.20;;;9.60;99.90;;;;;;5033842;28;20224;-59
2022/04/11 12:15:02;;;;;;;8.35;3.83;;;9.50;99.90;;;;;;5045875;28;20249;-57
2022/04/11 12:18:01;;;;;;;8.60;3.72;;;9.50;99.90;;;;;;5038026;28;20221;-56
2022/04/11 12:20:51;;;;;;;12.05;4.13;;;9.60;99.90;;;;;;5022665;28;20228;-57
2022/04/11 12:23:45;;;;;;;8.75;4.03;;;9.90;99.90;;;;;;5036373;28;20736;-61
2022/04/11 12:26:36;;;;;;;10.02;4.47;;;10.10;99.90;;;;;;5031703;28;20217;-64
2022/04/11 12:29:27;;;;;;;10.27;4.90;;;10.10;99.90;;;;;;5032113;28;20224;-62
2022/04/11 12:32:16;;;;;;;9.98;3.60;;;9.90;99.90;;;;;;5034909;28;20227;-60
2022/04/11 12:35:16;;;;;;;7.25;2.97;;;9.70;99.90;;;;;;5027858;28;20687;-60
2022/04/11 12:38:07;;;;;;;10.00;3.55;;;9.90;99.90;;;;;;5018889;28;20241;-60
2022/04/11 12:40:56;;;;;;;8.90;4.00;;;10.10;99.90;;;;;;5028323;28;20265;-58
2022/04/11 12:44:19;;;;;;;9.38;3.83;;;10.10;99.90;;;;;;5031053;28;20232;-59
2022/04/11 12:47:10;;;;;;;6.80;3.33;;;10.00;99.90;;;;;;4955645;28;20224;-58
2022/04/11 12:49:58;;;;;;;8.07;4.07;;;9.90;99.90;;;;;;5035442;28;20898;-59
2022/04/11 12:52:47;;;;;;;14.85;3.40;;;9.80;99.90;;;;;;5027678;28;20223;-59
2022/04/11 12:55:36;;;;;;;7.32;3.13;;;10.00;99.90;;;;;;5035810;28;20713;-57
2022/04/11 12:58:27;;;;;;;8.15;3.40;;;10.40;99.90;;;;;;5039971;28;20221;-58
2022/04/11 13:01:16;;;;;;;7.55;3.35;;;10.30;99.90;;;;;;5036745;28;20233;-59
2022/04/11 13:04:06;;;;;;;6.63;3.00;;;10.30;99.90;;;;;;5038732;28;20553;-56
2022/04/11 13:06:55;;;;;;;7.25;3.38;;;10.20;99.90;;;;;;5037283;28;20682;-61
2022/04/11 13:09:43;;;;;;;6.13;3.15;;;10.40;99.90;;;;;;5036866;28;20227;-60
2022/04/11 13:12:32;;;;;;;6.53;2.80;;;10.20;99.90;;;;;;5034222;28;20301;-59
2022/04/11 13:15:21;;;;;;;8.57;3.35;;;10.00;99.90;;;;;;5034640;28;20251;-61
2022/04/11 13:18:24;;;;;;;7.90;3.83;;;10.20;99.90;;;;;;5035972;28;20227;-59
2022/04/11 13:21:14;;;;;;;4.50;3.42;;;10.10;99.90;;;;;;5022173;28;20221;-59
2022/04/11 13:24:07;;;;;;;8.10;3.63;;;10.20;99.90;;;;;;5029109;28;20560;-59
2022/04/11 13:26:56;;;;;;;8.98;4.00;;;10.50;99.90;;;;;;5030431;28;20581;-58
2022/04/11 13:29:45;;;;;;;6.38;3.50;;;10.50;99.90;;;;;;5061144;28;20233;-60
2022/04/11 13:32:58;;;;;;;7.47;3.85;;;10.40;99.90;;;;;;5060012;28;20217;-60
2022/04/11 13:35:51;;;;;;;8.32;3.53;;;10.60;99.90;;;;;;5046631;28;20228;-59
2022/04/11 13:38:41;;;;;;;9.30;3.63;;;10.60;99.90;;;;;;5050498;28;20229;-56
2022/04/11 13:41:29;;;;;;;8.05;3.25;;;10.50;99.90;;;;;;5047483;28;20229;-59
2022/04/11 13:44:20;;;;;;;5.95;3.50;;;10.40;99.30;;;;;;5046481;28;20687;-61
2022/04/11 13:47:10;;;;;;;10.15;3.40;;;10.40;99.90;;;;;;5048215;28;20262;-60
2022/04/11 13:49:59;;;;;;;9.50;3.97;;;10.50;99.20;;;;;;5046621;28;20247;-58
2022/04/11 13:52:48;;;;;;;6.60;3.70;;;10.40;99.90;;;;;;5044762;28;20204;-59
2022/04/11 13:55:38;;;;;;;7.13;4.55;;;10.20;99.90;;;;;;5046100;28;20220;-59
2022/04/11 13:58:32;;;;;;;7.57;4.28;;;10.00;99.90;;;;;;5048198;28;20224;-60
2022/04/11 14:01:21;;;;;;;9.00;4.30;;;9.90;99.90;;;;;;5051031;28;20534;-61
2022/04/11 14:04:10;;;;;;;8.80;3.97;;;9.90;99.90;;;;;;5047395;28;20323;-59
2022/04/11 14:06:59;;;;;;;6.28;4.53;;;9.90;99.90;;;;;;5048300;28;20766;-60
2022/04/11 14:09:51;;;;;;;8.82;4.78;;;10.10;99.90;;;;;;5054250;28;20228;-60
2022/04/11 14:12:42;;;;;;;10.48;4.70;;;10.10;99.90;;;;;;5048413;28;20235;-60
2022/04/11 14:15:30;;;;;;;7.07;4.70;;;10.50;99.90;;;;;;5050830;28;20312;-63
2022/04/11 14:18:19;;;;;;;10.20;4.30;;;10.50;99.90;;;;;;5052605;28;20224;-59
2022/04/11 14:21:11;;;;;;;8.35;4.28;;;10.60;99.90;;;;;;5064156;28;20319;-57
2022/04/11 14:24:01;;;;;;;7.28;4.38;;;10.60;99.90;;;;;;5052238;28;20725;-61
2022/04/11 14:26:50;;;;;;;5.45;4.03;;;10.40;99.90;;;;;;5047920;28;20667;-61
2022/04/11 14:29:44;;;;;;;8.50;3.92;;;10.40;99.90;;;;;;5056715;28;20212;-60
2022/04/11 14:32:33;;;;;;;8.18;4.07;;;10.30;99.90;;;;;;5050976;28;20235;-60
2022/04/11 14:35:22;;;;;;;4.60;3.00;;;10.30;99.90;;;;;;5058749;28;20689;-61
2022/04/11 14:38:11;;;;;;;6.40;3.20;;;10.20;98.40;;;;;;5058508;28;20237;-59
2022/04/11 14:41:01;;;;;;;5.85;3.05;;;10.20;98.30;;;;;;5059388;28;20258;-62
2022/04/11 14:43:50;;;;;;;9.90;3.80;;;10.20;98.00;;;;;;5042679;28;20224;-61
2022/04/11 14:46:40;;;;;;;7.63;3.95;;;10.10;98.70;;;;;;5056566;28;20224;-60